createdAt,value
2018-10-16T00:01:26.694Z,66.2
2018-10-16T00:11:26.532Z,71.2
2018-10-16T00:21:27.997Z,62.8
2018-10-16T00:31:26.692Z,67.6
2018-10-16T00:41:26.528Z,51.6
2018-10-16T00:51:27.381Z,51.4
2018-10-16T01:01:27.212Z,54.7
2018-10-16T01:11:27.002Z,58.5
2018-10-16T01:21:27.098Z,56.3
2018-10-16T01:31:27.074Z,51.3
2018-10-16T01:41:26.863Z,53.4
2018-10-16T01:51:27.287Z,54.4
2018-10-16T02:01:27.101Z,55.6
2018-10-16T02:11:27.107Z,58.7
2018-10-16T02:21:27.697Z,53.9
2018-10-16T02:31:26.485Z,46.1
2018-10-16T02:41:27.577Z,46.1
2018-10-16T02:51:26.932Z,53.3
2018-10-16T03:01:28.856Z,52.9
2018-10-16T03:11:26.978Z,47.4
2018-10-16T03:21:27.029Z,52.5
2018-10-16T03:31:26.687Z,51.3
2018-10-16T03:41:26.609Z,49.2
2018-10-16T03:51:28.120Z,45.7
2018-10-16T04:01:26.978Z,46.4
2018-10-16T04:11:27.900Z,47.1
2018-10-16T04:21:26.931Z,45.6
2018-10-16T04:31:27.177Z,47.8
2018-10-16T04:41:27.909Z,48.4
2018-10-16T04:51:27.472Z,44.5
2018-10-16T05:01:27.656Z,47.1
2018-10-16T05:11:26.712Z,38.9
2018-10-16T05:21:27.100Z,47.3
2018-10-16T05:31:30.379Z,38.7
2018-10-16T05:41:27.344Z,44.2
2018-10-16T05:51:27.538Z,44.9
2018-10-16T06:01:27.363Z,42.9
2018-10-16T06:11:27.900Z,45.2
2018-10-16T06:21:27.757Z,71.7
2018-10-16T06:31:27.824Z,55.3
2018-10-16T06:41:27.676Z,52.1
2018-10-16T06:51:27.003Z,53.9
2018-10-16T07:01:28.590Z,58.0
2018-10-16T07:11:29.697Z,50.1
2018-10-16T07:21:26.639Z,65.1
2018-10-16T07:31:26.717Z,80.9
2018-10-16T07:41:27.166Z,69.1
2018-10-16T07:51:27.284Z,76.0
2018-10-16T08:01:27.956Z,65.9
2018-10-16T08:11:27.005Z,46.7
2018-10-16T08:21:27.458Z,53.9
2018-10-16T08:31:28.093Z,43.7
2018-10-16T08:41:27.184Z,37.3
2018-10-16T08:51:27.580Z,28.1
2018-10-16T09:01:27.347Z,32.0
2018-10-16T09:11:26.192Z,25.6
2018-10-16T09:21:27.927Z,18.8
2018-10-16T09:31:27.423Z,23.5
2018-10-16T09:41:26.508Z,22.5
2018-10-16T09:51:28.234Z,24.2
2018-10-16T10:01:26.651Z,16.7
2018-10-16T10:11:28.414Z,14.7
2018-10-16T10:21:26.662Z,20.2
2018-10-16T10:31:27.093Z,15.2
2018-10-16T10:41:26.823Z,15.0
2018-10-16T10:51:28.093Z,14.9
2018-10-16T11:01:27.510Z,15.2
2018-10-16T11:11:26.879Z,13.0
2018-10-16T11:21:27.554Z,12.7
2018-10-16T11:31:27.505Z,10.3
2018-10-16T11:41:26.320Z,11.1
2018-10-16T11:51:26.189Z,11.6
2018-10-16T12:01:27.864Z,10.9
2018-10-16T12:11:25.796Z,11.5
2018-10-16T12:21:25.810Z,14.3
2018-10-16T12:31:25.700Z,9.8
2018-10-16T12:41:25.655Z,9.3
2018-10-16T12:51:25.784Z,11.5
2018-10-16T13:01:25.979Z,17.2
2018-10-16T13:11:25.785Z,11.1
2018-10-16T13:21:26.178Z,13.3
2018-10-16T13:31:26.035Z,10.9
2018-10-16T13:41:26.593Z,8.3
2018-10-16T13:51:27.219Z,14.3
2018-10-16T14:01:26.045Z,10.6
2018-10-16T14:11:27.053Z,13.2
2018-10-16T14:21:26.145Z,8.1
2018-10-16T14:31:29.026Z,11.0
2018-10-16T14:41:29.261Z,10.2
2018-10-16T14:51:27.722Z,12.8
2018-10-16T15:01:25.522Z,18.0
2018-10-16T15:11:26.689Z,12.2
2018-10-16T15:21:25.651Z,13.9
2018-10-16T15:31:28.152Z,19.9
2018-10-16T15:41:27.611Z,22.5
2018-10-16T15:51:25.858Z,20.9
2018-10-16T16:01:27.573Z,18.7
2018-10-16T16:11:26.431Z,20.9
2018-10-16T16:21:26.616Z,25.5
2018-10-16T16:31:26.637Z,23.4
2018-10-16T16:41:27.394Z,33.6
2018-10-16T16:51:27.639Z,25.7
2018-10-16T17:01:26.369Z,22.4
2018-10-16T17:11:26.851Z,32.2
2018-10-16T17:21:27.609Z,27.6
2018-10-16T17:31:26.693Z,29.8
2018-10-16T17:41:27.283Z,47.3
2018-10-16T17:51:26.151Z,39.1
2018-10-16T18:01:27.788Z,44.2
2018-10-16T18:11:27.117Z,44.6
2018-10-16T18:21:26.884Z,45.5
2018-10-16T18:31:26.696Z,57.5
2018-10-16T18:41:28.186Z,44.3
2018-10-16T18:51:27.425Z,46.9
2018-10-16T19:01:27.849Z,55.0
2018-10-16T19:11:29.226Z,48.5
2018-10-16T19:21:27.289Z,51.0
2018-10-16T19:31:28.400Z,53.6
2018-10-16T19:41:27.739Z,56.6
2018-10-16T19:51:27.295Z,56.7
2018-10-16T20:01:28.796Z,51.9
2018-10-16T20:11:26.736Z,54.7
2018-10-16T20:21:26.727Z,51.6
2018-10-16T20:31:26.637Z,53.3
2018-10-16T20:41:27.415Z,71.5
2018-10-16T20:51:29.136Z,65.5
2018-10-16T21:01:27.518Z,64.1
2018-10-16T21:11:27.055Z,66.9
2018-10-16T21:21:27.187Z,65.1
2018-10-16T21:31:27.112Z,67.4
2018-10-16T21:41:27.502Z,72.6
2018-10-16T21:51:28.055Z,56.9
2018-10-16T22:01:27.221Z,69.0
2018-10-16T22:11:28.544Z,64.7
2018-10-16T22:21:27.986Z,58.3
2018-10-16T22:31:26.773Z,56.8
2018-10-16T22:41:26.797Z,50.4
2018-10-16T22:51:27.365Z,61.9
2018-10-16T23:01:28.753Z,58.4
2018-10-16T23:11:27.009Z,54.9
2018-10-16T23:21:28.928Z,59.6
2018-10-16T23:31:27.359Z,64.3
2018-10-16T23:41:27.210Z,69.1
2018-10-16T23:51:27.856Z,53.2
